Time;durP1;ratioP1;P1;durP2;ratioP2;P2;SDS_P1;SDS_P2;PMS_P1;PMS_P2;Temp;Humidity;BMP_temperature;BMP_pressure;BME280_temperature;BME280_humidity;BME280_pressure;Samples;Min_cycle;Max_cycle;Signal;HPM_P1;HPM_P2
2022/04/12 00:44:35;;;;;;;6.30;4.00;;;;;;;5.31;75.78;101911.84;5000306;28;20290;-70
2022/04/12 00:47:00;;;;;;;5.23;3.50;;;;;;;5.33;75.94;101901.75;4996059;28;20211;-70
2022/04/12 00:49:25;;;;;;;5.50;3.80;;;;;;;5.31;75.85;101899.16;4989057;28;20180;-69
2022/04/12 00:51:52;;;;;;;7.27;4.27;;;;;;;5.26;76.07;101892.94;4989612;28;20322;-70
2022/04/12 00:54:19;;;;;;;7.70;3.93;;;;;;;5.25;75.80;101896.25;4990144;28;20361;-70
2022/04/12 00:56:47;;;;;;;6.47;3.90;;;;;;;5.25;76.31;101891.16;4993012;28;20274;-70
2022/04/12 00:59:13;;;;;;;7.23;3.53;;;;;;;5.31;75.94;101883.03;5006890;28;20194;-70
2022/04/12 01:01:38;;;;;;;7.83;3.90;;;;;;;5.35;75.77;101878.22;5011624;28;20202;-70
2022/04/12 01:04:03;;;;;;;6.00;3.60;;;;;;;5.28;75.80;101876.13;5003351;28;20612;-69
2022/04/12 01:06:29;;;;;;;6.77;3.80;;;;;;;5.33;75.93;101882.34;5003194;28;20568;-70
2022/04/12 01:08:54;;;;;;;6.67;3.70;;;;;;;5.38;75.68;101877.53;5006248;28;20190;-70
2022/04/12 01:11:20;;;;;;;6.73;3.97;;;;;;;5.37;75.36;101879.19;5003581;28;20190;-70
2022/04/12 01:13:45;;;;;;;5.30;3.50;;;;;;;5.37;75.60;101874.09;4999872;28;20206;-70
2022/04/12 01:16:11;;;;;;;6.97;3.70;;;;;;;5.38;74.98;101865.69;5008389;28;20182;-71
2022/04/12 01:18:37;;;;;;;6.00;3.43;;;;;;;5.41;74.44;101865.88;4999576;28;20286;-70
2022/04/12 01:21:03;;;;;;;8.53;3.90;;;;;;;5.34;75.12;101860.38;5006441;28;20196;-71
2022/04/12 01:23:36;;;;;;;6.80;3.73;;;;;;;5.40;74.80;101853.09;5014393;28;20210;-70
2022/04/12 01:26:02;;;;;;;7.03;3.83;;;;;;;5.41;74.55;101848.09;5011222;28;20186;-70
2022/04/12 01:28:27;;;;;;;9.80;3.90;;;;;;;5.43;74.59;101849.06;5016297;28;20317;-70
2022/04/12 01:30:54;;;;;;;7.43;3.57;;;;;;;5.44;74.60;101852.47;5014545;28;20652;-70
2022/04/12 01:33:20;;;;;;;7.60;3.57;;;;;;;5.44;74.30;101844.84;5016034;28;20297;-70
2022/04/12 01:35:46;;;;;;;5.83;3.70;;;;;;;5.47;73.96;101848.44;5014846;28;20604;-71
2022/04/12 01:38:11;;;;;;;6.73;3.97;;;;;;;5.45;74.28;101836.44;5016132;28;20673;-71
2022/04/12 01:40:37;;;;;;;7.07;3.43;;;;;;;5.46;74.35;101831.44;5016117;28;20209;-70
2022/04/12 01:43:02;;;;;;;5.67;3.40;;;;;;;5.45;74.17;101836.44;5016004;28;20203;-70
2022/04/12 01:45:27;;;;;;;4.20;3.03;;;;;;;5.49;74.14;101833.28;5016328;28;20203;-70
2022/04/12 01:47:53;;;;;;;7.23;3.50;;;;;;;5.50;73.84;101830.84;5015474;28;20219;-70
2022/04/12 01:50:19;;;;;;;7.27;3.27;;;;;;;5.49;74.00;101835.81;5015946;28;20578;-70
2022/04/12 01:52:44;;;;;;;6.07;3.60;;;;;;;5.51;73.77;101826.59;5014755;28;20246;-70
2022/04/12 01:55:10;;;;;;;6.80;3.40;;;;;;;5.46;73.81;101828.91;5015906;28;20202;-70
2022/04/12 01:57:35;;;;;;;6.60;3.60;;;;;;;5.46;73.64;101830.56;5007493;28;20198;-70
2022/04/12 02:00:01;;;;;;;7.23;3.67;;;;;;;5.44;74.17;101825.41;4997893;28;20564;-71
2022/04/12 02:02:26;;;;;;;5.37;3.63;;;;;;;5.46;73.53;101830.56;4997713;28;20699;-71
2022/04/12 02:04:52;;;;;;;7.37;3.47;;;;;;;5.44;74.29;101829.63;5015514;28;20253;-71
2022/04/12 02:07:18;;;;;;;6.50;3.50;;;;;;;5.45;73.32;101828.81;5015786;28;20305;-70
2022/04/12 02:09:43;;;;;;;5.17;3.57;;;;;;;5.41;73.59;101834.50;5000462;28;20211;-71
2022/04/12 02:12:10;;;;;;;6.13;3.57;;;;;;;5.40;73.45;101831.13;4978319;28;20188;-70
2022/04/12 02:14:35;;;;;;;6.10;3.37;;;;;;;5.39;73.48;101829.34;4998159;28;20217;-70
2022/04/12 02:17:01;;;;;;;6.27;3.60;;;;;;;5.41;73.77;101816.75;5008077;28;20548;-70
2022/04/12 02:19:26;;;;;;;6.27;3.80;;;;;;;5.39;73.30;101821.72;5011844;28;20699;-70
2022/04/12 02:21:52;;;;;;;6.10;3.50;;;;;;;5.39;73.32;101814.13;5015546;28;20198;-69
2022/04/12 02:24:17;;;;;;;6.03;3.67;;;;;;;5.39;73.40;101821.72;5015381;28;20303;-69
2022/04/12 02:26:42;;;;;;;7.07;3.27;;;;;;;5.38;73.09;101814.06;5011746;28;20214;-70
2022/04/12 02:29:08;;;;;;;5.77;3.30;;;;;;;5.39;73.29;101819.19;5012619;28;20187;-70
2022/04/12 02:31:33;;;;;;;4.93;3.27;;;;;;;5.35;73.22;101814.72;5008985;28;20663;-70
2022/04/12 02:33:59;;;;;;;4.63;3.40;;;;;;;5.32;73.38;101819.66;5007563;28;20762;-69
2022/04/12 02:36:24;;;;;;;6.60;3.60;;;;;;;5.31;73.45;101817.03;5011790;28;20779;-70
2022/04/12 02:38:49;;;;;;;5.30;3.40;;;;;;;5.31;73.61;101819.56;5012392;28;20179;-70
2022/04/12 02:41:15;;;;;;;7.17;3.37;;;;;;;5.27;73.66;101823.59;5011721;28;20191;-69
2022/04/12 02:43:40;;;;;;;5.47;3.40;;;;;;;5.21;73.39;101822.38;5010919;28;20272;-70
2022/04/12 02:46:05;;;;;;;6.63;3.37;;;;;;;5.21;73.50;101822.38;5009978;28;20229;-69
2022/04/12 02:48:31;;;;;;;4.47;3.07;;;;;;;5.20;74.04;101813.88;5001238;28;20250;-70
2022/04/12 02:50:56;;;;;;;6.87;3.20;;;;;;;5.20;73.48;101818.97;5012532;28;20250;-70
2022/04/12 02:53:21;;;;;;;4.50;3.20;;;;;;;5.18;73.72;101818.00;5011396;28;20292;-70
2022/04/12 02:55:47;;;;;;;6.13;3.27;;;;;;;5.18;73.54;101818.00;5011970;28;20222;-70
2022/04/12 02:58:12;;;;;;;8.40;3.50;;;;;;;5.14;73.76;101816.09;5011468;28;20234;-70
2022/04/12 03:00:37;;;;;;;4.43;3.50;;;;;;;5.14;73.24;101820.28;4997633;28;20192;-70
2022/04/12 03:03:03;;;;;;;8.70;3.73;;;;;;;5.15;73.73;101817.81;4991955;28;20191;-70
2022/04/12 03:05:28;;;;;;;7.33;3.40;;;;;;;5.11;73.72;101812.50;5007671;28;20202;-69
2022/04/12 03:07:53;;;;;;;5.13;3.33;;;;;;;5.07;74.30;101805.50;4993988;28;20203;-70
2022/04/12 03:10:19;;;;;;;3.37;2.83;;;;;;;5.07;74.11;101810.59;5011280;28;20187;-69
2022/04/12 03:12:44;;;;;;;5.57;3.40;;;;;;;5.06;74.14;101806.31;5009998;28;20393;-69
2022/04/12 03:15:09;;;;;;;5.33;3.33;;;;;;;4.99;74.42;101810.16;4985520;28;20794;-70
2022/04/12 03:17:35;;;;;;;5.33;3.60;;;;;;;5.01;74.75;101810.25;5009840;28;20214;-69
2022/04/12 03:20:00;;;;;;;5.00;3.03;;;;;;;4.99;74.88;101820.31;5011341;28;20199;-70
2022/04/12 03:22:25;;;;;;;4.90;3.50;;;;;;;4.95;74.82;101820.03;4993238;28;20205;-70
2022/04/12 03:24:51;;;;;;;5.63;3.43;;;;;;;4.96;74.48;101821.78;5011243;28;20222;-70
2022/04/12 03:27:16;;;;;;;8.07;4.00;;;;;;;4.97;74.62;101816.78;4988481;28;20580;-69
2022/04/12 03:29:42;;;;;;;6.90;3.73;;;;;;;4.94;74.94;101821.72;4999888;28;20249;-70
2022/04/12 03:32:07;;;;;;;6.03;3.43;;;;;;;4.90;75.14;101817.25;5010868;28;20192;-70
2022/04/12 03:34:33;;;;;;;5.93;3.37;;;;;;;4.91;75.12;101824.06;4997099;28;20208;-69
2022/04/12 03:36:59;;;;;;;6.37;3.60;;;;;;;4.93;74.91;101819.06;4973526;28;20574;-69
2022/04/12 03:39:25;;;;;;;5.63;3.07;;;;;;;4.91;75.04;101825.72;4991004;28;20179;-69
2022/04/12 03:41:51;;;;;;;5.43;3.33;;;;;;;4.89;74.93;101817.16;4984280;28;20682;-69
2022/04/12 03:44:18;;;;;;;8.63;3.40;;;;;;;4.87;74.88;101821.25;5007330;28;20246;-70
2022/04/12 03:46:43;;;;;;;5.93;3.40;;;;;;;4.80;75.50;101830.19;4993296;28;20215;-70
2022/04/12 03:49:10;;;;;;;4.40;3.00;;;;;;;4.79;75.42;101825.88;5010363;28;20520;-70
2022/04/12 03:51:36;;;;;;;6.80;4.07;;;;;;;4.82;74.93;101822.63;4979740;28;20198;-70
2022/04/12 03:54:03;;;;;;;6.00;3.60;;;;;;;4.79;74.87;101827.56;4973128;28;20211;-70
2022/04/12 03:56:28;;;;;;;5.77;3.83;;;;;;;4.67;75.30;101821.75;4991503;28;20433;-70
2022/04/12 03:58:53;;;;;;;5.63;3.60;;;;;;;4.71;75.13;101816.09;4997466;28;20265;-69
2022/04/12 04:01:19;;;;;;;5.77;3.57;;;;;;;4.67;76.20;101809.97;5010508;28;20550;-71
2022/04/12 04:03:44;;;;;;;7.33;3.77;;;;;;;4.67;75.44;101816.69;5010710;28;20643;-69
2022/04/12 04:06:11;;;;;;;6.83;3.80;;;;;;;4.70;75.18;101814.34;5010356;28;20221;-70
2022/04/12 04:08:36;;;;;;;5.20;3.30;;;;;;;4.69;75.14;101820.22;5009848;28;20580;-69
2022/04/12 04:11:02;;;;;;;6.30;3.27;;;;;;;4.73;75.34;101814.50;5010135;28;20183;-69
2022/04/12 04:13:30;;;;;;;8.53;4.03;;;;;;;4.70;75.21;101824.50;5010613;28;20353;-70
2022/04/12 04:15:55;;;;;;;7.47;3.90;;;;;;;4.69;74.96;101813.47;5010597;28;20740;-69
2022/04/12 04:18:21;;;;;;;5.57;3.33;;;;;;;4.72;75.01;101816.19;5009967;28;20318;-70
2022/04/12 04:20:47;;;;;;;8.47;3.33;;;;;;;4.72;75.39;101810.22;5010519;28;20773;-70
2022/04/12 04:23:12;;;;;;;6.73;3.00;;;;;;;4.72;75.39;101808.56;5009558;28;20680;-71
2022/04/12 04:25:38;;;;;;;8.20;4.03;;;;;;;4.72;75.15;101812.75;5009643;28;20245;-70
2022/04/12 04:28:05;;;;;;;3.73;2.90;;;;;;;4.71;74.70;101814.44;5009876;28;20221;-70
2022/04/12 04:30:33;;;;;;;5.03;3.47;;;;;;;4.74;75.35;101812.06;5010226;28;20561;-71
2022/04/12 04:32:59;;;;;;;4.77;3.23;;;;;;;4.75;75.09;101806.19;5009737;28;20210;-70
2022/04/12 04:35:25;;;;;;;5.47;3.37;;;;;;;4.75;75.40;101801.13;5009771;28;20688;-71
2022/04/12 04:37:50;;;;;;;5.47;3.57;;;;;;;4.77;74.62;101798.66;5003821;28;20180;-69
2022/04/12 04:40:18;;;;;;;7.03;3.60;;;;;;;4.79;74.72;101799.66;5009655;28;20549;-70
2022/04/12 04:42:45;;;;;;;8.53;4.10;;;;;;;4.79;74.49;101800.50;5009125;28;20187;-70
2022/04/12 04:45:15;;;;;;;7.00;3.80;;;;;;;4.83;74.36;101797.38;5009483;28;20203;-68
2022/04/12 04:47:56;;;;;;;6.90;4.03;;;;;;;4.88;74.40;101802.72;5009837;28;20218;-71
2022/04/12 04:50:23;;;;;;;6.37;4.00;;;;;;;4.90;74.07;101804.56;5008710;28;20199;-71
2022/04/12 04:52:49;;;;;;;8.20;3.37;;;;;;;4.93;74.54;101806.38;5009837;28;20191;-70
2022/04/12 04:55:16;;;;;;;6.77;3.93;;;;;;;4.91;74.13;101803.75;5009655;28;20199;-69
2022/04/12 04:57:43;;;;;;;7.00;4.20;;;;;;;4.95;74.00;101805.69;5010347;28;20183;-71
2022/04/12 05:00:18;;;;;;;8.23;3.90;;;;;;;4.97;74.68;101813.41;4999745;28;20971;-69
2022/04/12 05:02:47;;;;;;;5.23;4.13;;;;;;;5.00;73.96;101806.81;4989423;28;20194;-71
2022/04/12 05:05:14;;;;;;;8.87;4.30;;;;;;;5.03;73.64;101813.72;5002777;28;20271;-71
2022/04/12 05:07:40;;;;;;;7.77;4.10;;;;;;;5.00;73.89;101819.50;5009177;28;20211;-70
2022/04/12 05:10:07;;;;;;;4.70;3.80;;;;;;;5.05;73.29;101815.56;5009773;28;20198;-71
2022/04/12 05:12:33;;;;;;;6.87;4.00;;;;;;;5.11;72.98;101820.97;5009407;28;20664;-70
2022/04/12 05:14:58;;;;;;;8.13;3.70;;;;;;;5.19;73.17;101822.28;5008962;28;20215;-70
2022/04/12 05:17:25;;;;;;;5.87;3.83;;;;;;;5.21;72.77;101828.31;5009380;28;20241;-71
2022/04/12 05:19:51;;;;;;;6.37;4.17;;;;;;;5.31;72.75;101834.81;5009627;28;20221;-69
2022/04/12 05:22:17;;;;;;;6.13;3.93;;;;;;;5.32;72.24;101829.81;4992255;28;20252;-69
2022/04/12 05:24:42;;;;;;;5.27;3.70;;;;;;;5.39;72.09;101834.44;5009000;28;20688;-71
2022/04/12 05:27:07;;;;;;;5.47;4.03;;;;;;;5.43;71.99;101825.34;5009656;28;20227;-70
2022/04/12 05:29:33;;;;;;;6.70;3.90;;;;;;;5.45;72.60;101837.34;5009114;28;20194;-70
2022/04/12 05:31:58;;;;;;;9.63;3.80;;;;;;;5.49;71.83;101841.78;5008689;28;20197;-70
2022/04/12 05:34:23;;;;;;;6.10;3.70;;;;;;;5.56;71.60;101841.31;5008911;28;20207;-70
2022/04/12 05:36:49;;;;;;;9.17;3.80;;;;;;;5.60;72.02;101855.94;4992199;28;20190;-70
2022/04/12 05:39:14;;;;;;;7.33;3.80;;;;;;;5.69;71.83;101860.66;4991931;28;20183;-70
2022/04/12 05:41:39;;;;;;;6.67;3.97;;;;;;;5.73;71.48;101860.91;5008993;28;20187;-71
2022/04/12 05:44:05;;;;;;;6.67;3.50;;;;;;;5.79;71.17;101856.16;5009726;28;20209;-71
2022/04/12 05:46:30;;;;;;;7.83;4.10;;;;;;;5.83;70.98;101860.66;5008844;28;20187;-70
2022/04/12 05:48:55;;;;;;;4.47;3.80;;;;;;;5.87;70.59;101860.03;4990975;28;20195;-71
2022/04/12 05:51:21;;;;;;;6.13;3.53;;;;;;;5.97;70.47;101864.81;5006699;28;20268;-70
2022/04/12 05:53:46;;;;;;;7.77;4.67;;;;;;;5.97;70.28;101862.28;5000753;28;20643;-70
2022/04/12 05:56:11;;;;;;;6.23;4.03;;;;;;;6.06;70.92;101869.50;5004811;28;20677;-70
2022/04/12 05:58:39;;;;;;;5.93;3.60;;;;;;;6.06;70.08;101872.03;4991121;28;20257;-71
2022/04/12 06:01:04;;;;;;;5.77;3.70;;;;;;;6.14;69.38;101871.69;5011056;28;20239;-70
2022/04/12 06:03:29;;;;;;;7.87;3.83;;;;;;;6.17;69.35;101882.00;5012204;28;20211;-70
2022/04/12 06:05:55;;;;;;;7.93;3.87;;;;;;;6.29;69.34;101884.31;5012344;28;20191;-70
2022/04/12 06:08:20;;;;;;;6.07;3.50;;;;;;;6.33;69.20;101889.66;5012292;28;20638;-70
2022/04/12 06:10:45;;;;;;;7.27;3.47;;;;;;;6.34;68.93;101886.31;4995136;28;20537;-71
2022/04/12 06:13:11;;;;;;;6.70;3.70;;;;;;;6.48;68.83;101879.41;5012395;28;20703;-71
2022/04/12 06:15:36;;;;;;;6.30;3.90;;;;;;;6.52;69.00;101877.09;5012281;28;20205;-70
2022/04/12 06:18:01;;;;;;;5.83;3.70;;;;;;;6.63;68.87;101872.56;5012745;28;20176;-70
2022/04/12 06:20:27;;;;;;;6.40;3.60;;;;;;;6.64;69.52;101877.72;4994500;28;20281;-70
2022/04/12 06:22:53;;;;;;;6.17;3.27;;;;;;;6.80;68.54;101871.75;5012368;28;20187;-70
2022/04/12 06:25:22;;;;;;;5.37;3.40;;;;;;;6.88;68.20;101870.47;5008621;28;20710;-70
2022/04/12 06:27:51;;;;;;;5.63;3.77;;;;;;;6.88;67.14;101863.72;5004468;28;20587;-70
2022/04/12 06:30:23;;;;;;;5.70;3.77;;;;;;;6.92;67.52;101865.63;5009012;28;20180;-69
2022/04/12 06:32:48;;;;;;;5.53;3.50;;;;;;;6.99;66.46;101851.50;4998083;28;20613;-70
2022/04/12 06:35:15;;;;;;;6.30;3.53;;;;;;;7.07;66.44;101843.47;5013314;28;20260;-69
2022/04/12 06:37:42;;;;;;;8.00;3.80;;;;;;;7.22;66.37;101836.56;5001143;28;20242;-70
2022/04/12 06:40:09;;;;;;;4.60;3.37;;;;;;;7.23;66.20;101840.00;5005130;28;20668;-69
2022/04/12 06:42:35;;;;;;;11.30;4.03;;;;;;;7.32;66.87;101843.00;5000930;28;20778;-70
2022/04/12 06:45:01;;;;;;;5.60;3.77;;;;;;;7.37;65.99;101837.28;5015152;28;20206;-70
2022/04/12 06:47:26;;;;;;;8.17;3.80;;;;;;;7.44;66.57;101823.16;5006188;28;20203;-70
2022/04/12 06:49:52;;;;;;;6.63;3.77;;;;;;;7.53;65.29;101823.59;5013615;28;20180;-70
2022/04/12 06:52:20;;;;;;;7.33;3.40;;;;;;;7.51;63.81;101827.78;4994280;28;20556;-70
2022/04/12 06:54:46;;;;;;;5.17;3.27;;;;;;;7.70;62.94;101830.38;5000731;28;20215;-70
2022/04/12 06:57:11;;;;;;;5.57;3.23;;;;;;;7.75;63.89;101826.34;4998774;28;20176;-69
2022/04/12 06:59:37;;;;;;;6.67;3.33;;;;;;;7.80;61.54;101819.78;5007566;28;20575;-70
2022/04/12 07:02:02;;;;;;;5.93;3.53;;;;;;;7.94;62.08;101822.19;5017768;28;20274;-70
2022/04/12 07:04:29;;;;;;;4.63;3.30;;;;;;;7.98;61.51;101830.84;5006208;28;20253;-70
2022/04/12 07:06:56;;;;;;;7.03;3.50;;;;;;;7.95;60.89;101840.88;5004336;28;20214;-70
2022/04/12 07:09:22;;;;;;;6.00;3.00;;;;;;;8.04;60.63;101836.22;5005865;28;20197;-70
2022/04/12 07:11:48;;;;;;;5.83;3.47;;;;;;;8.02;59.82;101836.13;5000866;28;20274;-70
2022/04/12 07:14:13;;;;;;;5.50;3.53;;;;;;;8.17;60.89;101839.41;5006406;28;20273;-69
2022/04/12 07:16:38;;;;;;;6.87;3.30;;;;;;;8.32;60.42;101844.31;5005364;28;20183;-71
2022/04/12 07:19:04;;;;;;;7.03;3.93;;;;;;;8.32;58.91;101846.88;5011172;28;20201;-70
2022/04/12 07:21:30;;;;;;;5.93;3.80;;;;;;;8.32;59.34;101842.66;5008515;28;20261;-70
2022/04/12 07:23:58;;;;;;;6.27;3.70;;;;;;;8.35;59.11;101847.00;4993347;28;20604;-70
2022/04/12 07:26:27;;;;;;;4.47;3.40;;;;;;;8.36;59.94;101853.84;4985186;28;20198;-71
2022/04/12 07:28:52;;;;;;;4.93;3.40;;;;;;;8.64;60.68;101860.25;5012377;28;20664;-70
2022/04/12 07:31:18;;;;;;;5.90;3.60;;;;;;;8.63;59.05;101871.28;5007857;28;20193;-70
2022/04/12 07:33:43;;;;;;;5.37;3.60;;;;;;;8.73;59.11;101864.84;5012339;28;20218;-69
2022/04/12 07:36:08;;;;;;;5.40;3.40;;;;;;;8.74;59.29;101866.59;5007814;28;20202;-70
2022/04/12 07:38:34;;;;;;;6.13;3.67;;;;;;;8.83;58.85;101878.09;5014069;28;20187;-71
2022/04/12 07:40:59;;;;;;;6.07;3.27;;;;;;;8.87;58.06;101879.09;5004520;28;20196;-70
2022/04/12 07:43:24;;;;;;;6.30;3.93;;;;;;;8.88;58.88;101866.41;5004552;28;20256;-71
2022/04/12 07:45:50;;;;;;;8.03;3.67;;;;;;;9.01;58.39;101867.78;5012304;28;20230;-70
2022/04/12 07:48:15;;;;;;;4.83;3.33;;;;;;;8.89;58.16;101868.13;4991668;28;20251;-69
2022/04/12 07:50:40;;;;;;;5.27;3.33;;;;;;;9.15;57.61;101875.22;5015563;28;20199;-70
2022/04/12 07:53:06;;;;;;;4.60;3.33;;;;;;;9.25;58.58;101871.34;5003342;28;20195;-69
2022/04/12 07:55:31;;;;;;;6.43;3.73;;;;;;;9.17;56.95;101872.72;5011362;28;20188;-70
2022/04/12 07:57:57;;;;;;;7.47;3.50;;;;;;;9.33;56.89;101882.75;5008081;28;20183;-70
2022/04/12 08:00:23;;;;;;;3.87;3.37;;;;;;;9.69;56.09;101867.22;5006710;28;20253;-70
2022/04/12 08:02:49;;;;;;;7.43;3.90;;;;;;;10.03;56.45;101857.47;5005387;28;20195;-70
2022/04/12 08:05:14;;;;;;;5.50;3.50;;;;;;;10.13;55.64;101859.56;5003826;28;20243;-70
2022/04/12 08:07:44;;;;;;;4.70;3.63;;;;;;;10.28;53.95;101866.97;5008634;28;20215;-71
2022/04/12 08:10:10;;;;;;;4.83;3.27;;;;;;;10.28;54.30;101864.41;5011374;28;20523;-70
2022/04/12 08:12:35;;;;;;;4.97;3.73;;;;;;;10.45;54.26;101870.97;5003106;28;20194;-70
2022/04/12 08:15:02;;;;;;;5.43;3.47;;;;;;;10.60;53.92;101864.72;5001630;28;20217;-70
2022/04/12 08:17:27;;;;;;;7.10;3.73;;;;;;;10.55;54.57;101862.84;4995152;28;20562;-70
2022/04/12 08:19:53;;;;;;;6.97;3.70;;;;;;;10.75;54.03;101847.34;5007259;28;20194;-70
2022/04/12 08:22:18;;;;;;;4.60;3.33;;;;;;;10.66;53.77;101847.03;5004928;28;20552;-71
2022/04/12 08:24:43;;;;;;;6.07;3.80;;;;;;;10.75;53.52;101849.91;5003543;28;20293;-70
2022/04/12 08:27:09;;;;;;;4.07;3.60;;;;;;;11.07;53.38;101848.44;5001585;28;20223;-70
2022/04/12 08:29:34;;;;;;;5.97;3.70;;;;;;;11.48;53.46;101837.84;4989771;28;20203;-70
2022/04/12 08:31:59;;;;;;;4.10;3.50;;;;;;;11.15;52.72;101847.84;5012990;28;20194;-70
2022/04/12 08:34:24;;;;;;;7.20;3.60;;;;;;;11.47;52.11;101842.06;5007744;28;20222;-71
2022/04/12 08:36:50;;;;;;;4.60;3.03;;;;;;;11.53;51.77;101833.72;5010186;28;20195;-70
2022/04/12 08:39:15;;;;;;;6.30;3.70;;;;;;;11.73;50.33;101823.28;5000617;28;20187;-71
2022/04/12 08:41:41;;;;;;;4.57;3.33;;;;;;;11.99;49.63;101817.19;5003545;28;20583;-70
2022/04/12 08:44:07;;;;;;;5.60;3.60;;;;;;;12.27;49.00;101821.44;4997687;28;20869;-70
2022/04/12 08:46:33;;;;;;;4.67;3.07;;;;;;;12.38;47.97;101823.47;5008338;28;20195;-70
2022/04/12 08:48:58;;;;;;;4.00;3.20;;;;;;;12.06;48.29;101826.84;5010615;28;20244;-70
2022/04/12 08:51:27;;;;;;;7.13;3.87;;;;;;;12.37;48.32;101819.19;5000717;28;20270;-70
2022/04/12 08:53:55;;;;;;;6.10;3.47;;;;;;;12.68;47.68;101818.31;5003324;28;20215;-70
2022/04/12 08:56:21;;;;;;;4.83;3.20;;;;;;;13.02;46.70;101820.09;5002529;28;20302;-70
2022/04/12 08:58:47;;;;;;;5.63;3.40;;;;;;;13.37;45.84;101814.09;5002447;28;20211;-70
2022/04/12 09:01:12;;;;;;;4.63;3.40;;;;;;;13.80;45.52;101811.63;5003271;28;20186;-70
2022/04/12 09:03:37;;;;;;;5.57;3.50;;;;;;;13.67;45.46;101814.78;5014305;28;20211;-71
2022/04/12 09:06:03;;;;;;;4.33;3.70;;;;;;;14.42;44.72;101808.69;4992609;28;20197;-71
2022/04/12 09:08:30;;;;;;;4.10;3.30;;;;;;;14.04;44.42;101815.59;5002497;28;20207;-70
2022/04/12 09:11:01;;;;;;;6.23;3.40;;;;;;;14.32;43.87;101807.63;5003574;28;20223;-71
2022/04/12 09:13:27;;;;;;;4.80;3.43;;;;;;;14.77;43.25;101802.47;5001623;28;20215;-70
2022/04/12 09:15:52;;;;;;;6.73;3.90;;;;;;;14.84;42.98;101794.00;5004093;28;20191;-72
2022/04/12 09:18:32;;;;;;;5.03;3.60;;;;;;;14.83;43.17;101794.84;4997762;28;20187;-71
2022/04/12 09:21:19;;;;;;;4.90;3.50;;;;;;;14.91;42.65;101801.88;5009111;28;20243;-71
2022/04/12 09:23:50;;;;;;;7.17;3.30;;;;;;;15.31;41.80;101799.09;5000177;28;20293;-70
2022/04/12 09:26:27;;;;;;;6.27;3.80;;;;;;;15.66;41.70;101797.06;5005071;28;20198;-70
2022/04/12 09:28:55;;;;;;;5.60;3.73;;;;;;;15.65;40.18;101793.63;5002640;28;20219;-71
2022/04/12 09:31:21;;;;;;;5.90;3.47;;;;;;;16.70;40.79;101783.69;4998602;28;20269;-70
2022/04/12 09:33:48;;;;;;;3.80;3.30;;;;;;;15.44;40.29;101789.88;5011235;28;20210;-71
2022/04/12 09:36:14;;;;;;;5.10;3.87;;;;;;;15.98;39.89;101788.03;5000882;28;20191;-70
2022/04/12 09:38:41;;;;;;;6.87;4.07;;;;;;;16.39;39.28;101792.84;5012222;28;20234;-71
2022/04/12 09:41:22;;;;;;;5.77;4.13;;;;;;;16.12;38.86;101796.84;5008768;28;20190;-70
2022/04/12 09:44:08;;;;;;;7.10;4.07;;;;;;;16.21;39.16;101784.88;5010755;28;20219;-70
2022/04/12 09:46:35;;;;;;;5.87;4.30;;;;;;;16.18;40.30;101776.22;5012438;28;20195;-71
2022/04/12 09:49:01;;;;;;;6.73;4.60;;;;;;;15.71;40.17;101777.34;5007259;28;20211;-70
2022/04/12 09:51:26;;;;;;;5.77;4.43;;;;;;;16.12;39.42;101779.59;5003982;28;20614;-71
2022/04/12 09:53:52;;;;;;;6.30;4.37;;;;;;;16.07;40.23;101775.25;4982435;28;20226;-71
2022/04/12 09:56:25;;;;;;;7.90;4.30;;;;;;;15.93;40.81;101781.94;4994207;28;20195;-70
2022/04/12 09:58:55;;;;;;;6.43;4.60;;;;;;;15.74;40.96;101775.66;5006368;28;20239;-70
2022/04/12 10:01:22;;;;;;;6.60;4.60;;;;;;;16.57;39.55;101768.94;5003559;28;20245;-71
2022/04/12 10:03:55;;;;;;;5.97;4.40;;;;;;;15.93;39.30;101775.06;5001771;28;20203;-71
2022/04/12 10:06:26;;;;;;;6.93;4.80;;;;;;;16.76;38.81;101766.53;5000122;28;20225;-70
2022/04/12 10:08:58;;;;;;;6.77;4.93;;;;;;;16.11;39.17;101777.00;4993890;28;20234;-70
2022/04/12 10:11:24;;;;;;;5.37;4.53;;;;;;;17.34;38.61;101767.84;4999675;28;20271;-70
2022/04/12 10:13:50;;;;;;;6.37;5.37;;;;;;;16.96;38.59;101746.88;4979712;28;20928;-70
2022/04/12 10:16:20;;;;;;;6.80;4.70;;;;;;;17.58;38.10;101749.91;5009604;28;20210;-69
2022/04/12 10:18:47;;;;;;;7.77;5.17;;;;;;;17.56;38.16;101751.63;5014087;28;20248;-71
2022/04/12 10:21:13;;;;;;;6.20;4.77;;;;;;;17.12;38.57;101750.41;5003021;28;20596;-71
2022/04/12 10:23:42;;;;;;;7.70;5.07;;;;;;;17.54;38.13;101753.34;5003863;28;20250;-70
2022/04/12 10:26:09;;;;;;;6.97;5.23;;;;;;;17.62;38.59;101751.66;5012447;28;20558;-70
2022/04/12 10:28:36;;;;;;;7.10;5.03;;;;;;;17.27;38.80;101746.22;5012504;28;20559;-70
2022/04/12 10:31:21;;;;;;;7.20;5.37;;;;;;;17.34;39.25;101741.97;5011734;28;20195;-70
2022/04/12 10:34:05;;;;;;;8.27;5.43;;;;;;;16.99;39.60;101735.69;5011257;28;20215;-71
2022/04/12 10:37:04;;;;;;;8.57;5.50;;;;;;;16.62;39.41;101741.41;5012240;28;20233;-69
2022/04/12 10:39:48;;;;;;;8.60;6.50;;;;;;;17.21;39.25;101737.53;5006630;28;20210;-70
2022/04/12 10:42:25;;;;;;;7.67;6.10;;;;;;;17.23;39.91;101728.94;5011813;28;20617;-71
2022/04/12 10:44:58;;;;;;;10.10;6.33;;;;;;;17.34;39.31;101727.28;5012035;28;20237;-70
2022/04/12 10:47:35;;;;;;;10.50;6.60;;;;;;;17.04;38.92;101715.88;5010622;28;20569;-70
2022/04/12 10:50:20;;;;;;;6.90;5.30;;;;;;;16.95;39.26;101702.88;5012129;28;20171;-70
2022/04/12 10:52:50;;;;;;;7.57;6.33;;;;;;;17.04;39.10;101700.34;5011777;28;20221;-70
2022/04/12 10:55:25;;;;;;;7.67;6.23;;;;;;;17.16;38.63;101700.41;5010880;28;20249;-70
2022/04/12 10:57:52;;;;;;;8.20;5.97;;;;;;;17.17;37.52;101694.41;5011944;28;20191;-70
2022/04/12 11:00:22;;;;;;;8.03;6.40;;;;;;;17.48;38.12;101691.13;5011484;28;20187;-70
2022/04/12 11:02:54;;;;;;;8.60;6.17;;;;;;;17.19;37.51;101698.72;5011967;28;20187;-70
2022/04/12 11:05:44;;;;;;;7.93;6.40;;;;;;;18.33;37.06;101688.00;5011297;28;20294;-70
2022/04/12 11:08:12;;;;;;;8.93;6.37;;;;;;;18.35;35.63;101684.56;5011649;28;20266;-70
2022/04/12 11:10:38;;;;;;;10.93;6.50;;;;;;;18.24;36.22;101683.63;4993767;28;20213;-71
2022/04/12 11:13:10;;;;;;;8.40;6.00;;;;;;;18.70;34.90;101679.38;5010726;28;20186;-70
2022/04/12 11:15:37;;;;;;;6.77;5.80;;;;;;;19.20;34.24;101675.00;5000326;28;20191;-71
2022/04/12 11:18:05;;;;;;;9.30;6.10;;;;;;;19.15;34.31;101667.19;5011613;28;20175;-71
2022/04/12 11:20:32;;;;;;;10.60;5.87;;;;;;;18.89;35.00;101671.56;4993890;28;20211;-70
2022/04/12 11:22:59;;;;;;;7.63;6.13;;;;;;;19.09;35.26;101671.53;5010795;28;20210;-70
2022/04/12 11:25:26;;;;;;;9.57;6.13;;;;;;;19.29;33.83;101670.66;5011359;28;20203;-71
2022/04/12 11:27:59;;;;;;;9.80;6.83;;;;;;;18.96;34.86;101669.81;5010969;28;20268;-70
2022/04/12 11:30:25;;;;;;;8.17;6.20;;;;;;;19.45;33.94;101668.88;4993125;28;20548;-71
2022/04/12 11:32:54;;;;;;;8.50;6.50;;;;;;;19.36;34.48;101662.00;5010830;28;20175;-70
2022/04/12 11:35:20;;;;;;;6.77;6.07;;;;;;;19.79;34.26;101655.72;5011140;28;20702;-70
2022/04/12 11:37:46;;;;;;;9.90;6.63;;;;;;;19.81;33.77;101655.72;5010796;28;20202;-71
2022/04/12 11:40:12;;;;;;;9.07;6.93;;;;;;;19.26;33.85;101655.06;5011181;28;20183;-70
2022/04/12 11:42:37;;;;;;;11.50;6.90;;;;;;;19.34;34.17;101652.47;5011101;28;20179;-71
2022/04/12 11:45:03;;;;;;;9.87;6.73;;;;;;;19.67;34.45;101639.34;4992851;28;20317;-70
2022/04/12 11:47:33;;;;;;;10.07;7.30;;;;;;;19.47;34.43;101655.00;5010377;28;20282;-70
2022/04/12 11:49:59;;;;;;;9.20;7.03;;;;;;;20.19;34.19;101644.25;4993036;28;20206;-70
2022/04/12 11:52:27;;;;;;;8.43;7.00;;;;;;;20.47;34.24;101640.56;5011092;28;20179;-71
2022/04/12 11:54:52;;;;;;;10.87;7.10;;;;;;;20.67;32.74;101629.97;5009167;28;20211;-71
2022/04/12 11:57:21;;;;;;;9.73;7.37;;;;;;;20.70;33.50;101627.34;5011177;28;20179;-71
2022/04/12 11:59:48;;;;;;;10.00;7.20;;;;;;;20.65;33.13;101619.59;5010472;28;20679;-71
2022/04/12 12:02:15;;;;;;;11.87;7.77;;;;;;;20.98;33.15;101629.72;5010429;28;20182;-71
2022/04/12 12:04:52;;;;;;;10.03;7.77;;;;;;;20.40;32.30;101628.47;4992151;28;20215;-72
2022/04/12 12:07:18;;;;;;;9.03;7.73;;;;;;;21.11;32.06;101625.22;5010166;28;20215;-71
2022/04/12 12:09:58;;;;;;;9.30;7.40;;;;;;;21.27;30.78;101613.72;5010664;28;20685;-71
2022/04/12 12:12:44;;;;;;;8.77;7.10;;;;;;;21.44;31.43;101615.28;5010115;28;20232;-71